sensor_id;sensor_type;location;lat;lon;timestamp;P1;durP1;ratioP1;P2;durP2;ratioP2
11962;SDS011;62678;52.130;5.584;2023-07-24T00:00:17;5.50;;;5.00;;
11962;SDS011;62678;52.130;5.584;2023-07-24T00:02:44;5.65;;;5.10;;
11962;SDS011;62678;52.130;5.584;2023-07-24T00:05:11;5.90;;;5.30;;
11962;SDS011;62678;52.130;5.584;2023-07-24T00:07:38;5.80;;;5.30;;
11962;SDS011;62678;52.130;5.584;2023-07-24T00:10:07;6.32;;;5.43;;
11962;SDS011;62678;52.130;5.584;2023-07-24T00:12:34;10.27;;;6.53;;
11962;SDS011;62678;52.130;5.584;2023-07-24T00:15:05;8.82;;;5.90;;
11962;SDS011;62678;52.130;5.584;2023-07-24T00:17:32;6.18;;;5.68;;
11962;SDS011;62678;52.130;5.584;2023-07-24T00:19:59;7.32;;;6.43;;
11962;SDS011;62678;52.130;5.584;2023-07-24T00:22:26;6.72;;;6.13;;
11962;SDS011;62678;52.130;5.584;2023-07-24T00:24:53;7.18;;;6.47;;
11962;SDS011;62678;52.130;5.584;2023-07-24T00:27:21;7.47;;;6.78;;
11962;SDS011;62678;52.130;5.584;2023-07-24T00:29:48;7.70;;;7.00;;
11962;SDS011;62678;52.130;5.584;2023-07-24T00:32:16;7.50;;;6.80;;
11962;SDS011;62678;52.130;5.584;2023-07-24T00:34:43;7.82;;;7.13;;
11962;SDS011;62678;52.130;5.584;2023-07-24T00:37:10;8.90;;;7.72;;
11962;SDS011;62678;52.130;5.584;2023-07-24T00:39:37;9.07;;;7.70;;
11962;SDS011;62678;52.130;5.584;2023-07-24T00:42:04;8.85;;;7.93;;
11962;SDS011;62678;52.130;5.584;2023-07-24T00:44:33;7.90;;;7.20;;
11962;SDS011;62678;52.130;5.584;2023-07-24T00:47:01;8.13;;;7.32;;
11962;SDS011;62678;52.130;5.584;2023-07-24T00:49:28;8.25;;;7.45;;
11962;SDS011;62678;52.130;5.584;2023-07-24T00:51:55;7.60;;;6.93;;
11962;SDS011;62678;52.130;5.584;2023-07-24T00:54:23;8.25;;;7.45;;
11962;SDS011;62678;52.130;5.584;2023-07-24T00:56:50;8.90;;;8.00;;
11962;SDS011;62678;52.130;5.584;2023-07-24T00:59:17;8.60;;;7.80;;
11962;SDS011;62678;52.130;5.584;2023-07-24T01:01:46;8.15;;;7.28;;
11962;SDS011;62678;52.130;5.584;2023-07-24T01:04:14;7.90;;;7.20;;
11962;SDS011;62678;52.130;5.584;2023-07-24T01:06:41;7.95;;;7.25;;
11962;SDS011;62678;52.130;5.584;2023-07-24T01:09:08;8.82;;;7.90;;
11962;SDS011;62678;52.130;5.584;2023-07-24T01:11:37;8.60;;;7.90;;
11962;SDS011;62678;52.130;5.584;2023-07-24T01:14:12;8.30;;;7.60;;
11962;SDS011;62678;52.130;5.584;2023-07-24T01:16:43;8.77;;;7.97;;
11962;SDS011;62678;52.130;5.584;2023-07-24T01:19:16;10.32;;;8.13;;
11962;SDS011;62678;52.130;5.584;2023-07-24T01:21:55;8.98;;;8.18;;
11962;SDS011;62678;52.130;5.584;2023-07-24T01:24:33;10.35;;;9.35;;
11962;SDS011;62678;52.130;5.584;2023-07-24T01:27:19;10.40;;;9.32;;
11962;SDS011;62678;52.130;5.584;2023-07-24T01:29:47;10.13;;;9.13;;
11962;SDS011;62678;52.130;5.584;2023-07-24T01:32:14;11.93;;;10.60;;
11962;SDS011;62678;52.130;5.584;2023-07-24T01:34:41;11.30;;;10.30;;
11962;SDS011;62678;52.130;5.584;2023-07-24T01:37:08;11.30;;;10.20;;
11962;SDS011;62678;52.130;5.584;2023-07-24T01:39:37;12.27;;;10.82;;
11962;SDS011;62678;52.130;5.584;2023-07-24T01:42:05;11.77;;;10.50;;
11962;SDS011;62678;52.130;5.584;2023-07-24T01:44:34;12.25;;;10.75;;
11962;SDS011;62678;52.130;5.584;2023-07-24T01:47:01;10.70;;;9.70;;
11962;SDS011;62678;52.130;5.584;2023-07-24T01:49:28;11.50;;;10.25;;
11962;SDS011;62678;52.130;5.584;2023-07-24T01:51:55;11.35;;;10.27;;
11962;SDS011;62678;52.130;5.584;2023-07-24T01:54:22;11.45;;;10.40;;
11962;SDS011;62678;52.130;5.584;2023-07-24T01:56:49;10.70;;;9.70;;
11962;SDS011;62678;52.130;5.584;2023-07-24T01:59:17;11.10;;;10.00;;
11962;SDS011;62678;52.130;5.584;2023-07-24T02:01:45;10.40;;;9.50;;
11962;SDS011;62678;52.130;5.584;2023-07-24T02:04:12;11.05;;;9.77;;
11962;SDS011;62678;52.130;5.584;2023-07-24T02:06:40;10.50;;;9.57;;
11962;SDS011;62678;52.130;5.584;2023-07-24T02:09:07;10.43;;;9.43;;
11962;SDS011;62678;52.130;5.584;2023-07-24T02:11:35;11.02;;;10.02;;
11962;SDS011;62678;52.130;5.584;2023-07-24T02:14:02;10.45;;;9.35;;
11962;SDS011;62678;52.130;5.584;2023-07-24T02:16:29;11.27;;;10.25;;
11962;SDS011;62678;52.130;5.584;2023-07-24T02:18:57;11.48;;;10.27;;
11962;SDS011;62678;52.130;5.584;2023-07-24T02:21:25;11.25;;;10.25;;
11962;SDS011;62678;52.130;5.584;2023-07-24T02:23:52;10.80;;;9.77;;
11962;SDS011;62678;52.130;5.584;2023-07-24T02:26:19;10.40;;;9.50;;
11962;SDS011;62678;52.130;5.584;2023-07-24T02:28:46;10.80;;;9.70;;
11962;SDS011;62678;52.130;5.584;2023-07-24T02:31:13;10.05;;;9.10;;
11962;SDS011;62678;52.130;5.584;2023-07-24T02:33:40;10.10;;;9.20;;
11962;SDS011;62678;52.130;5.584;2023-07-24T02:36:08;10.27;;;9.38;;
11962;SDS011;62678;52.130;5.584;2023-07-24T02:38:35;10.00;;;9.10;;
11962;SDS011;62678;52.130;5.584;2023-07-24T02:41:02;9.80;;;8.90;;
11962;SDS011;62678;52.130;5.584;2023-07-24T02:43:29;8.73;;;7.93;;
11962;SDS011;62678;52.130;5.584;2023-07-24T02:45:59;9.35;;;7.60;;
11962;SDS011;62678;52.130;5.584;2023-07-24T02:48:27;7.90;;;7.13;;
11962;SDS011;62678;52.130;5.584;2023-07-24T02:50:54;8.10;;;7.20;;
11962;SDS011;62678;52.130;5.584;2023-07-24T02:53:22;8.02;;;7.22;;
11962;SDS011;62678;52.130;5.584;2023-07-24T02:55:49;8.63;;;7.45;;
11962;SDS011;62678;52.130;5.584;2023-07-24T02:58:16;8.75;;;7.88;;
11962;SDS011;62678;52.130;5.584;2023-07-24T03:00:43;8.63;;;7.82;;
11962;SDS011;62678;52.130;5.584;2023-07-24T03:03:10;7.90;;;7.20;;
11962;SDS011;62678;52.130;5.584;2023-07-24T03:05:37;8.88;;;8.07;;
11962;SDS011;62678;52.130;5.584;2023-07-24T03:08:04;8.88;;;7.97;;
11962;SDS011;62678;52.130;5.584;2023-07-24T03:10:32;8.40;;;7.57;;
11962;SDS011;62678;52.130;5.584;2023-07-24T03:12:59;8.05;;;7.35;;
11962;SDS011;62678;52.130;5.584;2023-07-24T03:15:26;7.53;;;6.82;;
11962;SDS011;62678;52.130;5.584;2023-07-24T03:17:53;8.90;;;7.05;;
11962;SDS011;62678;52.130;5.584;2023-07-24T03:20:20;7.20;;;6.50;;
11962;SDS011;62678;52.130;5.584;2023-07-24T03:22:47;8.23;;;7.20;;
11962;SDS011;62678;52.130;5.584;2023-07-24T03:25:14;7.43;;;6.43;;
11962;SDS011;62678;52.130;5.584;2023-07-24T03:27:43;7.53;;;6.82;;
11962;SDS011;62678;52.130;5.584;2023-07-24T03:30:10;7.78;;;6.88;;
11962;SDS011;62678;52.130;5.584;2023-07-24T03:32:37;8.15;;;7.07;;
11962;SDS011;62678;52.130;5.584;2023-07-24T03:35:04;9.25;;;7.07;;
11962;SDS011;62678;52.130;5.584;2023-07-24T03:37:33;9.45;;;7.35;;
11962;SDS011;62678;52.130;5.584;2023-07-24T03:40:01;8.43;;;7.18;;
11962;SDS011;62678;52.130;5.584;2023-07-24T03:42:28;11.48;;;7.88;;
11962;SDS011;62678;52.130;5.584;2023-07-24T03:44:58;10.50;;;7.90;;
11962;SDS011;62678;52.130;5.584;2023-07-24T03:47:24;9.35;;;7.97;;
11962;SDS011;62678;52.130;5.584;2023-07-24T03:49:51;10.00;;;8.93;;
11962;SDS011;62678;52.130;5.584;2023-07-24T03:52:19;9.95;;;8.90;;
11962;SDS011;62678;52.130;5.584;2023-07-24T03:54:46;9.30;;;8.35;;
11962;SDS011;62678;52.130;5.584;2023-07-24T03:57:13;11.65;;;8.80;;
11962;SDS011;62678;52.130;5.584;2023-07-24T03:59:40;9.27;;;8.27;;
11962;SDS011;62678;52.130;5.584;2023-07-24T04:02:08;11.15;;;9.05;;
11962;SDS011;62678;52.130;5.584;2023-07-24T04:04:35;13.07;;;9.80;;
11962;SDS011;62678;52.130;5.584;2023-07-24T04:07:02;11.75;;;9.07;;
11962;SDS011;62678;52.130;5.584;2023-07-24T04:09:29;13.63;;;10.30;;
11962;SDS011;62678;52.130;5.584;2023-07-24T04:11:56;10.65;;;9.02;;
11962;SDS011;62678;52.130;5.584;2023-07-24T04:14:23;13.30;;;9.68;;
11962;SDS011;62678;52.130;5.584;2023-07-24T04:16:50;11.32;;;9.15;;
11962;SDS011;62678;52.130;5.584;2023-07-24T04:19:18;13.75;;;10.27;;
11962;SDS011;62678;52.130;5.584;2023-07-24T04:21:45;13.43;;;10.10;;
11962;SDS011;62678;52.130;5.584;2023-07-24T04:24:12;13.25;;;10.15;;
11962;SDS011;62678;52.130;5.584;2023-07-24T04:26:39;13.23;;;10.07;;
11962;SDS011;62678;52.130;5.584;2023-07-24T04:29:07;12.18;;;10.32;;
11962;SDS011;62678;52.130;5.584;2023-07-24T04:31:34;10.57;;;9.40;;
11962;SDS011;62678;52.130;5.584;2023-07-24T04:34:01;13.15;;;9.95;;
11962;SDS011;62678;52.130;5.584;2023-07-24T04:36:29;13.82;;;10.50;;
11962;SDS011;62678;52.130;5.584;2023-07-24T04:38:56;13.48;;;10.32;;
11962;SDS011;62678;52.130;5.584;2023-07-24T04:41:23;10.80;;;9.18;;
11962;SDS011;62678;52.130;5.584;2023-07-24T04:43:50;13.82;;;10.15;;
11962;SDS011;62678;52.130;5.584;2023-07-24T04:46:17;12.07;;;10.20;;
11962;SDS011;62678;52.130;5.584;2023-07-24T04:48:44;13.05;;;9.98;;
11962;SDS011;62678;52.130;5.584;2023-07-24T04:51:11;14.95;;;10.07;;
11962;SDS011;62678;52.130;5.584;2023-07-24T04:53:39;12.52;;;10.13;;
11962;SDS011;62678;52.130;5.584;2023-07-24T04:56:06;12.57;;;10.25;;
11962;SDS011;62678;52.130;5.584;2023-07-24T04:58:33;11.85;;;10.27;;
11962;SDS011;62678;52.130;5.584;2023-07-24T05:01:04;13.32;;;9.95;;
11962;SDS011;62678;52.130;5.584;2023-07-24T05:03:31;12.68;;;9.88;;
11962;SDS011;62678;52.130;5.584;2023-07-24T05:05:58;12.52;;;10.25;;
11962;SDS011;62678;52.130;5.584;2023-07-24T05:08:25;13.90;;;10.73;;
11962;SDS011;62678;52.130;5.584;2023-07-24T05:10:57;14.90;;;10.60;;
11962;SDS011;62678;52.130;5.584;2023-07-24T05:13:24;14.40;;;10.70;;
11962;SDS011;62678;52.130;5.584;2023-07-24T05:15:52;12.57;;;9.82;;
11962;SDS011;62678;52.130;5.584;2023-07-24T05:18:19;15.95;;;10.68;;
11962;SDS011;62678;52.130;5.584;2023-07-24T05:20:46;13.93;;;10.60;;
11962;SDS011;62678;52.130;5.584;2023-07-24T05:23:16;12.25;;;10.05;;
11962;SDS011;62678;52.130;5.584;2023-07-24T05:25:43;12.30;;;9.85;;
11962;SDS011;62678;52.130;5.584;2023-07-24T05:28:11;14.60;;;10.70;;
11962;SDS011;62678;52.130;5.584;2023-07-24T05:30:39;12.68;;;10.02;;
11962;SDS011;62678;52.130;5.584;2023-07-24T05:33:05;10.50;;;9.40;;
11962;SDS011;62678;52.130;5.584;2023-07-24T05:35:33;12.63;;;9.63;;
11962;SDS011;62678;52.130;5.584;2023-07-24T05:38:00;11.60;;;9.43;;
11962;SDS011;62678;52.130;5.584;2023-07-24T05:40:27;10.73;;;9.55;;
11962;SDS011;62678;52.130;5.584;2023-07-24T05:42:54;12.23;;;9.43;;
11962;SDS011;62678;52.130;5.584;2023-07-24T05:45:23;12.70;;;9.57;;
11962;SDS011;62678;52.130;5.584;2023-07-24T05:47:50;16.27;;;10.52;;
11962;SDS011;62678;52.130;5.584;2023-07-24T05:50:17;13.20;;;10.35;;
11962;SDS011;62678;52.130;5.584;2023-07-24T05:52:44;15.00;;;10.73;;
11962;SDS011;62678;52.130;5.584;2023-07-24T05:55:11;12.80;;;10.20;;
11962;SDS011;62678;52.130;5.584;2023-07-24T05:57:38;11.57;;;9.65;;
11962;SDS011;62678;52.130;5.584;2023-07-24T06:00:06;11.88;;;9.48;;
11962;SDS011;62678;52.130;5.584;2023-07-24T06:02:35;11.32;;;9.32;;
11962;SDS011;62678;52.130;5.584;2023-07-24T06:05:02;12.27;;;9.73;;
11962;SDS011;62678;52.130;5.584;2023-07-24T06:07:30;13.43;;;9.77;;
11962;SDS011;62678;52.130;5.584;2023-07-24T06:09:57;11.73;;;9.48;;
11962;SDS011;62678;52.130;5.584;2023-07-24T06:12:24;14.38;;;9.82;;
11962;SDS011;62678;52.130;5.584;2023-07-24T06:14:51;11.38;;;9.38;;
11962;SDS011;62678;52.130;5.584;2023-07-24T06:17:18;14.10;;;9.55;;
11962;SDS011;62678;52.130;5.584;2023-07-24T06:19:47;12.43;;;8.88;;
11962;SDS011;62678;52.130;5.584;2023-07-24T06:22:14;13.65;;;8.73;;
11962;SDS011;62678;52.130;5.584;2023-07-24T06:24:41;12.13;;;8.80;;
11962;SDS011;62678;52.130;5.584;2023-07-24T06:27:08;12.73;;;10.00;;
11962;SDS011;62678;52.130;5.584;2023-07-24T06:29:36;12.45;;;9.05;;
11962;SDS011;62678;52.130;5.584;2023-07-24T06:32:03;13.88;;;9.38;;
11962;SDS011;62678;52.130;5.584;2023-07-24T06:34:30;11.43;;;9.10;;
11962;SDS011;62678;52.130;5.584;2023-07-24T06:36:59;12.45;;;9.20;;
11962;SDS011;62678;52.130;5.584;2023-07-24T06:39:27;15.43;;;9.55;;
11962;SDS011;62678;52.130;5.584;2023-07-24T06:41:54;13.77;;;9.57;;
11962;SDS011;62678;52.130;5.584;2023-07-24T06:44:21;13.80;;;9.20;;
11962;SDS011;62678;52.130;5.584;2023-07-24T06:46:48;11.25;;;8.73;;
11962;SDS011;62678;52.130;5.584;2023-07-24T06:49:15;11.88;;;8.95;;
11962;SDS011;62678;52.130;5.584;2023-07-24T06:51:42;14.57;;;8.63;;
11962;SDS011;62678;52.130;5.584;2023-07-24T06:54:11;11.48;;;8.38;;
11962;SDS011;62678;52.130;5.584;2023-07-24T06:56:38;12.57;;;8.60;;
11962;SDS011;62678;52.130;5.584;2023-07-24T06:59:05;12.85;;;8.32;;
11962;SDS011;62678;52.130;5.584;2023-07-24T07:01:33;15.07;;;9.05;;
11962;SDS011;62678;52.130;5.584;2023-07-24T07:04:00;12.75;;;8.93;;
11962;SDS011;62678;52.130;5.584;2023-07-24T07:06:27;14.77;;;8.68;;
11962;SDS011;62678;52.130;5.584;2023-07-24T07:08:54;15.15;;;9.02;;
11962;SDS011;62678;52.130;5.584;2023-07-24T07:11:22;13.68;;;8.90;;
11962;SDS011;62678;52.130;5.584;2023-07-24T07:13:49;14.32;;;9.60;;
11962;SDS011;62678;52.130;5.584;2023-07-24T07:16:16;13.30;;;8.05;;
11962;SDS011;62678;52.130;5.584;2023-07-24T07:18:44;11.80;;;8.82;;
11962;SDS011;62678;52.130;5.584;2023-07-24T07:21:11;13.82;;;9.25;;
11962;SDS011;62678;52.130;5.584;2023-07-24T07:23:38;12.95;;;9.13;;
11962;SDS011;62678;52.130;5.584;2023-07-24T07:26:05;14.73;;;9.00;;
11962;SDS011;62678;52.130;5.584;2023-07-24T07:28:34;10.73;;;7.53;;
11962;SDS011;62678;52.130;5.584;2023-07-24T07:31:01;9.27;;;7.43;;
11962;SDS011;62678;52.130;5.584;2023-07-24T07:33:28;11.05;;;8.10;;
11962;SDS011;62678;52.130;5.584;2023-07-24T07:35:56;12.43;;;8.30;;
11962;SDS011;62678;52.130;5.584;2023-07-24T07:38:23;9.75;;;7.60;;
11962;SDS011;62678;52.130;5.584;2023-07-24T07:40:50;9.80;;;7.70;;
11962;SDS011;62678;52.130;5.584;2023-07-24T07:43:17;10.98;;;8.07;;
11962;SDS011;62678;52.130;5.584;2023-07-24T07:45:46;10.88;;;7.05;;
11962;SDS011;62678;52.130;5.584;2023-07-24T07:48:14;11.30;;;7.50;;
11962;SDS011;62678;52.130;5.584;2023-07-24T07:50:41;9.88;;;7.13;;
11962;SDS011;62678;52.130;5.584;2023-07-24T07:53:09;8.32;;;7.07;;
11962;SDS011;62678;52.130;5.584;2023-07-24T07:55:36;9.57;;;6.85;;
11962;SDS011;62678;52.130;5.584;2023-07-24T07:58:04;10.40;;;7.05;;
11962;SDS011;62678;52.130;5.584;2023-07-24T08:00:32;8.50;;;6.78;;
11962;SDS011;62678;52.130;5.584;2023-07-24T08:03:01;9.25;;;7.05;;
11962;SDS011;62678;52.130;5.584;2023-07-24T08:05:28;8.90;;;6.80;;
11962;SDS011;62678;52.130;5.584;2023-07-24T08:07:57;11.05;;;7.60;;
11962;SDS011;62678;52.130;5.584;2023-07-24T08:10:24;7.97;;;6.82;;
11962;SDS011;62678;52.130;5.584;2023-07-24T08:12:52;9.57;;;6.47;;
11962;SDS011;62678;52.130;5.584;2023-07-24T08:15:19;9.32;;;6.15;;
11962;SDS011;62678;52.130;5.584;2023-07-24T08:17:46;11.07;;;6.90;;
11962;SDS011;62678;52.130;5.584;2023-07-24T08:20:15;8.98;;;6.35;;
11962;SDS011;62678;52.130;5.584;2023-07-24T08:22:42;7.80;;;6.53;;
11962;SDS011;62678;52.130;5.584;2023-07-24T08:25:10;11.18;;;7.47;;
11962;SDS011;62678;52.130;5.584;2023-07-24T08:27:38;8.00;;;6.80;;
11962;SDS011;62678;52.130;5.584;2023-07-24T08:30:06;12.77;;;7.43;;
11962;SDS011;62678;52.130;5.584;2023-07-24T08:32:34;10.98;;;7.68;;
11962;SDS011;62678;52.130;5.584;2023-07-24T08:35:01;9.73;;;7.90;;
11962;SDS011;62678;52.130;5.584;2023-07-24T08:37:29;9.05;;;6.75;;
11962;SDS011;62678;52.130;5.584;2023-07-24T08:39:57;11.98;;;6.78;;
11962;SDS011;62678;52.130;5.584;2023-07-24T08:42:25;8.32;;;6.93;;
11962;SDS011;62678;52.130;5.584;2023-07-24T08:44:52;9.48;;;6.95;;
11962;SDS011;62678;52.130;5.584;2023-07-24T08:47:22;9.40;;;5.93;;
11962;SDS011;62678;52.130;5.584;2023-07-24T08:49:50;10.73;;;5.25;;
11962;SDS011;62678;52.130;5.584;2023-07-24T08:52:18;8.40;;;5.50;;
11962;SDS011;62678;52.130;5.584;2023-07-24T08:54:47;8.65;;;5.95;;
11962;SDS011;62678;52.130;5.584;2023-07-24T08:57:16;12.02;;;6.53;;
11962;SDS011;62678;52.130;5.584;2023-07-24T08:59:44;8.95;;;6.63;;
11962;SDS011;62678;52.130;5.584;2023-07-24T09:02:11;13.35;;;7.20;;
11962;SDS011;62678;52.130;5.584;2023-07-24T09:04:40;9.75;;;6.50;;
11962;SDS011;62678;52.130;5.584;2023-07-24T09:07:07;10.23;;;6.63;;
11962;SDS011;62678;52.130;5.584;2023-07-24T09:09:35;9.20;;;7.05;;
11962;SDS011;62678;52.130;5.584;2023-07-24T09:12:05;8.40;;;7.05;;
11962;SDS011;62678;52.130;5.584;2023-07-24T09:14:33;9.00;;;8.05;;
11962;SDS011;62678;52.130;5.584;2023-07-24T09:17:04;9.70;;;7.60;;
11962;SDS011;62678;52.130;5.584;2023-07-24T09:19:32;9.27;;;7.65;;
11962;SDS011;62678;52.130;5.584;2023-07-24T09:22:07;9.15;;;7.57;;
11962;SDS011;62678;52.130;5.584;2023-07-24T09:24:36;8.20;;;7.30;;
11962;SDS011;62678;52.130;5.584;2023-07-24T09:27:06;10.38;;;8.00;;
11962;SDS011;62678;52.130;5.584;2023-07-24T09:29:35;9.30;;;7.03;;
11962;SDS011;62678;52.130;5.584;2023-07-24T09:32:02;10.20;;;7.53;;
11962;SDS011;62678;52.130;5.584;2023-07-24T09:34:31;10.90;;;6.88;;
11962;SDS011;62678;52.130;5.584;2023-07-24T09:36:58;11.23;;;6.68;;
11962;SDS011;62678;52.130;5.584;2023-07-24T09:39:26;11.88;;;6.70;;
11962;SDS011;62678;52.130;5.584;2023-07-24T09:42:02;10.63;;;6.70;;
11962;SDS011;62678;52.130;5.584;2023-07-24T09:44:31;10.25;;;6.40;;
11962;SDS011;62678;52.130;5.584;2023-07-24T09:46:59;11.73;;;6.28;;
11962;SDS011;62678;52.130;5.584;2023-07-24T09:49:27;10.02;;;5.70;;
11962;SDS011;62678;52.130;5.584;2023-07-24T09:51:55;8.38;;;6.20;;
11962;SDS011;62678;52.130;5.584;2023-07-24T09:54:29;10.65;;;6.47;;
11962;SDS011;62678;52.130;5.584;2023-07-24T09:57:06;11.20;;;6.30;;
11962;SDS011;62678;52.130;5.584;2023-07-24T09:59:36;7.38;;;6.47;;
11962;SDS011;62678;52.130;5.584;2023-07-24T10:02:05;11.07;;;6.50;;
11962;SDS011;62678;52.130;5.584;2023-07-24T10:04:37;12.10;;;6.22;;
11962;SDS011;62678;52.130;5.584;2023-07-24T10:07:06;8.77;;;5.68;;
11962;SDS011;62678;52.130;5.584;2023-07-24T10:09:34;9.55;;;5.93;;
11962;SDS011;62678;52.130;5.584;2023-07-24T10:12:04;8.75;;;6.60;;
11962;SDS011;62678;52.130;5.584;2023-07-24T10:14:32;8.65;;;6.05;;
11962;SDS011;62678;52.130;5.584;2023-07-24T10:17:03;10.52;;;6.10;;
11962;SDS011;62678;52.130;5.584;2023-07-24T10:19:35;7.38;;;5.63;;
11962;SDS011;62678;52.130;5.584;2023-07-24T10:22:04;7.20;;;5.50;;
11962;SDS011;62678;52.130;5.584;2023-07-24T10:24:32;8.10;;;5.45;;
11962;SDS011;62678;52.130;5.584;2023-07-24T10:27:02;9.05;;;5.90;;
11962;SDS011;62678;52.130;5.584;2023-07-24T10:29:34;10.02;;;5.53;;
11962;SDS011;62678;52.130;5.584;2023-07-24T10:32:04;7.70;;;5.47;;
11962;SDS011;62678;52.130;5.584;2023-07-24T10:34:42;11.43;;;5.97;;
11962;SDS011;62678;52.130;5.584;2023-07-24T10:37:09;11.55;;;7.63;;
11962;SDS011;62678;52.130;5.584;2023-07-24T10:39:38;8.27;;;5.53;;
11962;SDS011;62678;52.130;5.584;2023-07-24T10:42:07;10.20;;;5.28;;
11962;SDS011;62678;52.130;5.584;2023-07-24T10:44:35;11.43;;;5.90;;
11962;SDS011;62678;52.130;5.584;2023-07-24T10:47:04;11.40;;;5.60;;
11962;SDS011;62678;52.130;5.584;2023-07-24T10:49:33;8.82;;;5.07;;
11962;SDS011;62678;52.130;5.584;2023-07-24T10:52:10;9.27;;;6.20;;
11962;SDS011;62678;52.130;5.584;2023-07-24T10:54:38;10.68;;;5.72;;
11962;SDS011;62678;52.130;5.584;2023-07-24T10:57:06;11.90;;;6.47;;
11962;SDS011;62678;52.130;5.584;2023-07-24T10:59:35;11.38;;;6.05;;
11962;SDS011;62678;52.130;5.584;2023-07-24T11:02:04;10.18;;;5.88;;
11962;SDS011;62678;52.130;5.584;2023-07-24T11:04:33;9.05;;;5.28;;
11962;SDS011;62678;52.130;5.584;2023-07-24T11:07:00;7.30;;;4.70;;
11962;SDS011;62678;52.130;5.584;2023-07-24T11:09:35;11.35;;;6.28;;
11962;SDS011;62678;52.130;5.584;2023-07-24T11:12:12;9.77;;;5.75;;
11962;SDS011;62678;52.130;5.584;2023-07-24T11:14:47;8.15;;;5.50;;
11962;SDS011;62678;52.130;5.584;2023-07-24T11:17:19;10.10;;;5.90;;
11962;SDS011;62678;52.130;5.584;2023-07-24T11:19:46;7.93;;;5.07;;
11962;SDS011;62678;52.130;5.584;2023-07-24T11:22:14;9.48;;;5.82;;
11962;SDS011;62678;52.130;5.584;2023-07-24T11:24:43;7.63;;;5.55;;
11962;SDS011;62678;52.130;5.584;2023-07-24T11:27:13;7.07;;;5.05;;
11962;SDS011;62678;52.130;5.584;2023-07-24T11:29:41;7.32;;;4.90;;
11962;SDS011;62678;52.130;5.584;2023-07-24T11:32:16;6.57;;;4.72;;
11962;SDS011;62678;52.130;5.584;2023-07-24T11:34:45;9.75;;;5.10;;
11962;SDS011;62678;52.130;5.584;2023-07-24T11:37:13;6.50;;;5.10;;
11962;SDS011;62678;52.130;5.584;2023-07-24T11:39:42;7.10;;;4.90;;
11962;SDS011;62678;52.130;5.584;2023-07-24T11:42:20;11.07;;;5.90;;
11962;SDS011;62678;52.130;5.584;2023-07-24T11:44:50;8.60;;;5.95;;
11962;SDS011;62678;52.130;5.584;2023-07-24T11:47:17;8.55;;;4.97;;
11962;SDS011;62678;52.130;5.584;2023-07-24T11:49:44;7.65;;;6.18;;
11962;SDS011;62678;52.130;5.584;2023-07-24T11:52:23;9.32;;;6.28;;
11962;SDS011;62678;52.130;5.584;2023-07-24T11:54:57;8.15;;;6.20;;
11962;SDS011;62678;52.130;5.584;2023-07-24T11:57:26;8.07;;;4.88;;
11962;SDS011;62678;52.130;5.584;2023-07-24T11:59:54;10.00;;;5.85;;
11962;SDS011;62678;52.130;5.584;2023-07-24T12:02:23;8.65;;;5.75;;
11962;SDS011;62678;52.130;5.584;2023-07-24T12:04:55;8.63;;;6.05;;
11962;SDS011;62678;52.130;5.584;2023-07-24T12:07:28;8.57;;;6.10;;
11962;SDS011;62678;52.130;5.584;2023-07-24T12:09:59;9.85;;;6.60;;
11962;SDS011;62678;52.130;5.584;2023-07-24T12:12:36;8.13;;;6.32;;
11962;SDS011;62678;52.130;5.584;2023-07-24T12:15:04;10.40;;;6.90;;
11962;SDS011;62678;52.130;5.584;2023-07-24T12:17:32;10.50;;;7.88;;
11962;SDS011;62678;52.130;5.584;2023-07-24T12:19:59;14.35;;;7.72;;
11962;SDS011;62678;52.130;5.584;2023-07-24T12:22:27;11.10;;;7.47;;
11962;SDS011;62678;52.130;5.584;2023-07-24T12:24:54;12.40;;;7.80;;
11962;SDS011;62678;52.130;5.584;2023-07-24T12:27:22;11.02;;;7.43;;
11962;SDS011;62678;52.130;5.584;2023-07-24T12:29:49;10.48;;;7.20;;
11962;SDS011;62678;52.130;5.584;2023-07-24T12:32:17;9.98;;;6.70;;
11962;SDS011;62678;52.130;5.584;2023-07-24T12:34:46;10.50;;;6.63;;
11962;SDS011;62678;52.130;5.584;2023-07-24T12:37:13;10.85;;;6.45;;
11962;SDS011;62678;52.130;5.584;2023-07-24T12:39:40;11.32;;;6.07;;
11962;SDS011;62678;52.130;5.584;2023-07-24T12:42:07;9.10;;;6.10;;
11962;SDS011;62678;52.130;5.584;2023-07-24T12:44:35;10.20;;;6.85;;
11962;SDS011;62678;52.130;5.584;2023-07-24T12:47:03;10.23;;;6.55;;
11962;SDS011;62678;52.130;5.584;2023-07-24T12:49:31;10.77;;;7.10;;
11962;SDS011;62678;52.130;5.584;2023-07-24T12:51:58;12.95;;;7.90;;
11962;SDS011;62678;52.130;5.584;2023-07-24T12:54:25;8.60;;;7.43;;
11962;SDS011;62678;52.130;5.584;2023-07-24T12:56:53;10.95;;;7.75;;
11962;SDS011;62678;52.130;5.584;2023-07-24T12:59:21;11.75;;;7.07;;
11962;SDS011;62678;52.130;5.584;2023-07-24T13:01:50;10.85;;;7.60;;
11962;SDS011;62678;52.130;5.584;2023-07-24T13:04:17;10.68;;;6.70;;
11962;SDS011;62678;52.130;5.584;2023-07-24T13:06:46;11.10;;;6.70;;
11962;SDS011;62678;52.130;5.584;2023-07-24T13:09:14;8.77;;;6.30;;
11962;SDS011;62678;52.130;5.584;2023-07-24T13:11:41;9.07;;;6.90;;
11962;SDS011;62678;52.130;5.584;2023-07-24T13:14:08;8.85;;;6.88;;
11962;SDS011;62678;52.130;5.584;2023-07-24T13:16:36;7.78;;;6.53;;
11962;SDS011;62678;52.130;5.584;2023-07-24T13:19:04;10.05;;;6.20;;
11962;SDS011;62678;52.130;5.584;2023-07-24T13:21:31;8.65;;;4.63;;
11962;SDS011;62678;52.130;5.584;2023-07-24T13:23:58;6.25;;;4.25;;
11962;SDS011;62678;52.130;5.584;2023-07-24T13:26:26;6.13;;;4.60;;
11962;SDS011;62678;52.130;5.584;2023-07-24T13:28:53;6.07;;;4.63;;
11962;SDS011;62678;52.130;5.584;2023-07-24T13:31:20;7.88;;;5.60;;
11962;SDS011;62678;52.130;5.584;2023-07-24T13:33:48;8.27;;;5.75;;
11962;SDS011;62678;52.130;5.584;2023-07-24T13:36:17;9.48;;;6.75;;
11962;SDS011;62678;52.130;5.584;2023-07-24T13:38:45;7.90;;;7.03;;
11962;SDS011;62678;52.130;5.584;2023-07-24T13:41:13;12.32;;;7.57;;
11962;SDS011;62678;52.130;5.584;2023-07-24T13:43:40;11.55;;;9.57;;
11962;SDS011;62678;52.130;5.584;2023-07-24T13:46:08;12.43;;;10.00;;
11962;SDS011;62678;52.130;5.584;2023-07-24T13:48:35;12.18;;;10.65;;
11962;SDS011;62678;52.130;5.584;2023-07-24T13:51:02;16.08;;;10.27;;
11962;SDS011;62678;52.130;5.584;2023-07-24T13:53:31;14.38;;;11.35;;
11962;SDS011;62678;52.130;5.584;2023-07-24T13:55:59;13.88;;;11.55;;
11962;SDS011;62678;52.130;5.584;2023-07-24T13:58:26;12.45;;;10.55;;
11962;SDS011;62678;52.130;5.584;2023-07-24T14:00:53;15.57;;;10.95;;
11962;SDS011;62678;52.130;5.584;2023-07-24T14:03:21;14.90;;;10.60;;
11962;SDS011;62678;52.130;5.584;2023-07-24T14:05:51;14.82;;;11.15;;
11962;SDS011;62678;52.130;5.584;2023-07-24T14:08:18;16.65;;;11.73;;
11962;SDS011;62678;52.130;5.584;2023-07-24T14:10:47;14.88;;;11.48;;
11962;SDS011;62678;52.130;5.584;2023-07-24T14:13:15;14.35;;;10.90;;
11962;SDS011;62678;52.130;5.584;2023-07-24T14:15:42;12.13;;;9.90;;
11962;SDS011;62678;52.130;5.584;2023-07-24T14:18:09;10.80;;;9.70;;
11962;SDS011;62678;52.130;5.584;2023-07-24T14:20:37;10.23;;;8.35;;
11962;SDS011;62678;52.130;5.584;2023-07-24T14:23:05;11.10;;;7.30;;
11962;SDS011;62678;52.130;5.584;2023-07-24T14:25:33;10.25;;;8.30;;
11962;SDS011;62678;52.130;5.584;2023-07-24T14:28:02;11.82;;;8.23;;
11962;SDS011;62678;52.130;5.584;2023-07-24T14:30:30;10.40;;;7.93;;
11962;SDS011;62678;52.130;5.584;2023-07-24T14:32:57;10.18;;;8.30;;
11962;SDS011;62678;52.130;5.584;2023-07-24T14:35:25;10.20;;;6.80;;
11962;SDS011;62678;52.130;5.584;2023-07-24T14:37:52;8.52;;;7.00;;
11962;SDS011;62678;52.130;5.584;2023-07-24T14:40:19;9.35;;;6.07;;
11962;SDS011;62678;52.130;5.584;2023-07-24T14:42:47;7.65;;;6.18;;